Time;durP1;ratioP1;P1;durP2;ratioP2;P2;SDS_P1;SDS_P2;PMS_P1;PMS_P2;Temp;Humidity;BMP_temperature;BMP_pressure;BME280_temperature;BME280_humidity;BME280_pressure;Samples;Min_cycle;Max_cycle;Signal;HPM_P1;HPM_P2
2021/06/28 00:01:13;;;;;;;10.85;8.70;;;;;;;15.51;63.38;100351.48;1705260;82;26109;-66
2021/06/28 05:31:31;;;;;;;14.75;10.08;;;;;;;18.77;70.07;100358.19;1751469;75;72505;-62
2021/06/28 05:33:58;;;;;;;16.55;10.72;;;;;;;18.95;69.71;100367.33;1694931;81;25907;-62
2021/06/28 05:36:25;;;;;;;17.67;10.35;;;;;;;19.08;69.20;100359.75;1698749;82;25718;-62
2021/06/28 05:38:52;;;;;;;14.75;10.75;;;;;;;19.23;69.11;100361.58;1715151;80;25822;-62
2021/06/28 05:41:19;;;;;;;16.52;10.75;;;;;;;19.39;68.94;100360.88;1748403;80;25882;-62
2021/06/28 05:43:45;;;;;;;11.15;9.35;;;;;;;19.57;68.51;100366.63;1759043;79;27308;-62
2021/06/28 05:46:12;;;;;;;12.43;9.63;;;;;;;19.75;68.19;100368.31;1766523;79;25808;-63
2021/06/28 05:48:40;;;;;;;13.30;9.35;;;;;;;19.95;67.93;100366.81;1762618;79;26051;-63
2021/06/28 05:51:07;;;;;;;17.02;8.90;;;;;;;20.14;67.54;100373.56;1711021;81;25889;-62
2021/06/28 05:53:33;;;;;;;15.30;9.80;;;;;;;20.35;66.76;100375.00;1758870;79;25738;-63
2021/06/28 05:56:02;;;;;;;12.40;8.50;;;;;;;20.51;66.63;100378.91;1793363;78;27342;-63
2021/06/28 05:58:29;;;;;;;12.28;9.40;;;;;;;20.73;66.46;100381.34;1784994;78;26207;-63
2021/06/28 06:00:58;;;;;;;10.85;8.78;;;;;;;20.94;65.99;100382.15;1781008;78;25763;-63
2021/06/28 06:03:25;;;;;;;;;;;;;;;21.16;65.75;100385.89;1796640;78;25829;-63
2021/06/28 06:05:52;;;;;;;14.28;8.68;;;;;;;21.40;65.04;100394.75;1780738;78;25866;-62
2021/06/28 06:08:26;;;;;;;14.05;8.55;;;;;;;21.61;65.08;100390.83;1788258;78;27393;-61
2021/06/28 06:10:55;;;;;;;14.23;8.15;;;;;;;21.85;64.44;100385.11;1774518;78;25839;-61
2021/06/28 06:13:23;;;;;;;13.62;8.48;;;;;;;22.03;63.79;100385.20;1752272;79;25663;-62
2021/06/28 06:15:50;;;;;;;11.25;7.75;;;;;;;22.15;62.36;100390.38;1724129;81;26598;-62
2021/06/28 06:18:18;;;;;;;14.95;7.33;;;;;;;22.27;61.70;100388.69;1727487;81;25883;-62
2021/06/28 06:20:46;;;;;;;10.25;7.20;;;;;;;22.36;61.07;100392.49;1723879;81;27394;-61
2021/06/28 06:23:13;;;;;;;13.72;6.92;;;;;;;22.47;61.26;100391.15;1708113;81;25761;-61
2021/06/28 06:25:43;;;;;;;18.98;7.50;;;;;;;22.64;61.22;100390.41;1740657;80;25851;-61
2021/06/28 06:28:09;;;;;;;12.37;7.17;;;;;;;22.83;61.01;100400.91;1706707;81;25836;-61
2021/06/28 06:30:36;;;;;;;10.50;6.87;;;;;;;22.97;60.10;100400.95;1715059;81;25724;-61
2021/06/28 06:33:03;;;;;;;15.63;7.83;;;;;;;23.08;59.06;100396.27;1738910;80;27334;-61
2021/06/28 06:35:30;;;;;;;10.78;7.45;;;;;;;23.10;57.90;100403.58;1710808;81;25858;-61
2021/06/28 06:37:59;;;;;;;14.55;7.55;;;;;;;23.15;58.18;100396.08;1739311;81;26542;-61
2021/06/28 06:40:28;;;;;;;10.80;6.35;;;;;;;23.24;57.84;100395.09;1731285;79;25732;-60
2021/06/28 06:42:57;;;;;;;14.55;7.00;;;;;;;23.33;57.74;100398.84;1726006;81;26418;-71
2021/06/28 06:45:25;;;;;;;10.98;7.00;;;;;;;23.43;58.03;100394.72;1730691;81;27411;-74
2021/06/28 06:47:52;;;;;;;10.03;7.05;;;;;;;23.56;57.77;100391.55;1739246;81;26479;-74
2021/06/28 06:50:19;;;;;;;11.57;7.42;;;;;;;23.66;56.02;100390.16;1738954;81;25983;-73
2021/06/28 06:52:47;;;;;;;11.97;6.75;;;;;;;23.74;55.61;100398.45;1722273;81;25842;-71
2021/06/28 06:55:15;;;;;;;15.78;7.00;;;;;;;23.77;55.27;100394.30;1723860;81;25805;-72
2021/06/28 06:57:42;;;;;;;15.13;7.95;;;;;;;23.79;55.34;100394.69;1733472;81;29593;-70
2021/06/28 07:00:14;;;;;;;12.85;7.42;;;;;;;23.94;55.60;100398.83;1730686;81;25875;-71
2021/06/28 07:02:40;;;;;;;16.57;7.35;;;;;;;24.11;55.52;100396.63;1722759;81;25830;-71
2021/06/28 07:05:09;;;;;;;12.85;9.28;;;;;;;24.31;54.87;100395.56;1741418;81;25708;-69
2021/06/28 07:07:37;;;;;;;11.73;7.33;;;;;;;24.49;54.55;100400.25;1735002;80;25681;-70
2021/06/28 07:10:07;;;;;;;11.85;6.55;;;;;;;24.71;54.54;100403.13;1739573;80;27317;-72
2021/06/28 07:12:33;;;;;;;11.57;6.65;;;;;;;24.89;52.59;100408.57;1739213;80;25930;-71
2021/06/28 07:15:01;;;;;;;18.95;7.10;;;;;;;25.06;53.17;100407.46;1758885;80;26497;-71
2021/06/28 07:17:27;;;;;;;13.83;6.35;;;;;;;25.31;53.12;100408.09;1732924;80;25734;-72
2021/06/28 07:19:54;;;;;;;11.78;5.97;;;;;;;25.52;52.14;100411.31;1758043;79;26115;-72
2021/06/28 07:22:20;;;;;;;11.68;5.90;;;;;;;25.80;51.96;100417.78;1713457;81;27307;-70
2021/06/28 07:24:47;;;;;;;10.90;6.17;;;;;;;26.02;50.67;100412.83;1715699;82;25679;-71
2021/06/28 07:27:14;;;;;;;9.58;5.33;;;;;;;26.26;50.23;100412.37;1781858;78;26666;-70
2021/06/28 07:29:41;;;;;;;7.55;4.92;;;;;;;26.53;49.98;100411.66;1776379;78;27145;-69
2021/06/28 07:32:08;;;;;;;7.97;5.47;;;;;;;26.76;48.74;100412.36;1773587;78;25822;-70
2021/06/28 07:34:34;;;;;;;6.97;4.65;;;;;;;26.99;48.67;100415.03;1778234;78;28905;-71
2021/06/28 07:37:03;;;;;;;8.08;4.70;;;;;;;27.21;47.99;100423.83;1783645;79;25842;-70
2021/06/28 07:39:30;;;;;;;8.55;4.58;;;;;;;27.34;47.11;100420.64;1786383;78;25966;-70
2021/06/28 07:41:56;;;;;;;6.40;4.10;;;;;;;27.52;46.39;100414.81;1779588;78;25670;-68
2021/06/28 07:44:25;;;;;;;6.37;4.10;;;;;;;27.71;45.91;100409.13;1790131;78;26543;-69
2021/06/28 07:46:52;;;;;;;6.53;4.30;;;;;;;27.95;45.48;100414.06;1783386;78;26631;-69
2021/06/28 07:49:18;;;;;;;5.37;4.10;;;;;;;28.13;44.66;100412.34;1757608;79;25748;-68
2021/06/28 07:51:45;;;;;;;6.12;4.40;;;;;;;28.34;44.27;100411.74;1786300;78;25690;-70
2021/06/28 07:54:17;;;;;;;6.30;4.05;;;;;;;28.56;44.63;100405.16;1786701;78;27041;-69
2021/06/28 07:56:40;;;;;;;4.80;4.03;;;;;;;28.87;43.21;100409.82;1786183;78;25795;-69
2021/06/28 07:59:07;;;;;;;6.80;4.20;;;;;;;28.96;42.78;100406.47;1793855;78;27308;-70
2021/06/28 08:01:33;;;;;;;5.65;4.03;;;;;;;29.01;42.33;100405.14;1781690;78;25874;-70
2021/06/28 08:04:00;;;;;;;4.85;3.65;;;;;;;29.08;41.38;100404.20;1788481;78;26389;-70
2021/06/28 08:06:27;;;;;;;4.03;3.60;;;;;;;29.26;41.84;100396.23;1789517;78;25702;-70
2021/06/28 08:08:54;;;;;;;4.20;3.80;;;;;;;29.26;40.50;100402.42;1778880;78;25732;-70
2021/06/28 08:11:24;;;;;;;4.37;3.15;;;;;;;29.30;40.57;100401.71;1783668;78;27426;-71
2021/06/28 08:13:54;;;;;;;3.98;3.58;;;;;;;29.47;40.65;100399.08;1788141;78;25892;-72
2021/06/28 08:16:21;;;;;;;7.20;4.25;;;;;;;29.73;40.24;100404.78;1776986;78;25967;-72
2021/06/28 08:18:48;;;;;;;4.97;3.72;;;;;;;29.97;40.16;100405.39;1790909;79;26639;-71
2021/06/28 08:21:16;;;;;;;3.58;3.22;;;;;;;30.28;39.91;100396.56;1783467;78;25949;-72
2021/06/28 08:23:44;;;;;;;3.75;3.30;;;;;;;30.59;39.10;100401.66;1780564;78;27290;-72
2021/06/28 08:26:11;;;;;;;6.60;4.72;;;;;;;30.80;38.89;100399.63;1781820;78;25981;-72
2021/06/28 08:28:39;;;;;;;8.38;3.90;;;;;;;31.01;38.63;100393.99;1766831;79;25820;-72
2021/06/28 08:31:06;;;;;;;4.72;3.67;;;;;;;31.18;38.07;100389.69;1727298;80;25768;-69
2021/06/28 08:33:33;;;;;;;4.85;4.33;;;;;;;31.46;37.74;100392.13;1762245;79;25837;-70
2021/06/28 08:36:00;;;;;;;5.92;3.85;;;;;;;31.69;37.13;100392.97;1740710;80;28981;-68
2021/06/28 08:38:27;;;;;;;6.12;5.10;;;;;;;31.89;36.91;100385.68;1683925;83;25768;-67
2021/06/28 08:40:54;;;;;;;4.20;3.80;;;;;;;32.03;36.25;100382.38;1725376;81;25880;-68
2021/06/28 08:43:20;;;;;;;5.78;4.00;;;;;;;32.23;35.48;100384.85;1714578;82;25921;-70
2021/06/28 08:45:47;;;;;;;6.80;4.12;;;;;;;32.33;35.71;100389.27;1712839;81;25829;-72
2021/06/28 08:48:13;;;;;;;4.95;3.55;;;;;;;32.60;35.81;100391.28;1705522;81;27328;-68
2021/06/28 08:50:42;;;;;;;4.10;3.70;;;;;;;32.72;35.09;100381.40;1707913;81;26341;-70
2021/06/28 08:53:10;;;;;;;3.95;3.25;;;;;;;32.89;34.72;100390.96;1736393;79;26220;-71
2021/06/28 08:55:39;;;;;;;5.17;3.80;;;;;;;32.87;33.84;100392.05;1763256;79;25690;-75
2021/06/28 08:58:07;;;;;;;3.75;3.42;;;;;;;32.62;33.23;100398.00;1756951;79;25858;-72
2021/06/28 09:00:34;;;;;;;4.75;3.58;;;;;;;32.45;33.44;100386.85;1761639;80;27325;-72
2021/06/28 09:03:05;;;;;;;5.53;3.20;;;;;;;32.07;32.54;100386.48;1695435;81;25754;-74
2021/06/28 09:06:00;;;;;;;6.62;3.45;;;;;;;31.51;32.08;100386.62;1748615;81;26261;-74
2021/06/28 09:08:27;;;;;;;4.75;4.17;;;;;;;31.13;33.28;100384.04;1735588;81;25719;-72
2021/06/28 09:10:54;;;;;;;6.30;4.20;;;;;;;31.13;33.95;100379.08;1730759;81;25767;-72
2021/06/28 09:13:39;;;;;;;4.55;3.70;;;;;;;31.02;33.70;100373.82;1730548;81;27909;-76
2021/06/28 09:16:25;;;;;;;5.25;3.90;;;;;;;30.89;34.25;100373.20;1731717;81;26003;-77
2021/06/28 09:18:57;;;;;;;8.15;4.40;;;;;;;31.00;33.87;100374.27;1726611;81;25753;-76
2021/06/28 09:21:40;;;;;;;4.83;4.42;;;;;;;30.96;34.47;100375.63;1729994;81;25673;-70
2021/06/28 09:24:27;;;;;;;6.05;4.53;;;;;;;31.00;34.30;100374.27;1732851;81;25774;-75
2021/06/28 09:26:56;;;;;;;5.42;4.50;;;;;;;30.85;34.10;100380.91;1718534;81;27371;-73
2021/06/28 09:29:34;;;;;;;4.95;4.20;;;;;;;30.54;34.44;100385.63;1742545;81;25883;-71
2021/06/28 09:32:14;;;;;;;6.03;5.53;;;;;;;30.30;34.58;100384.34;1733047;81;25958;-70
2021/06/28 09:34:43;;;;;;;9.10;4.78;;;;;;;30.20;35.07;100387.60;1721598;80;25970;-72
2021/06/28 09:37:24;;;;;;;5.15;4.65;;;;;;;30.11;34.98;100383.29;1727553;81;25983;-72
2021/06/28 09:39:57;;;;;;;8.25;5.12;;;;;;;29.98;35.16;100386.03;1732589;80;27184;-74
2021/06/28 09:42:27;;;;;;;6.55;4.95;;;;;;;29.76;34.81;100386.63;1763194;79;26522;-73
2021/06/28 09:45:05;;;;;;;5.20;4.50;;;;;;;29.38;35.09;100395.52;1712783;81;25789;-70
2021/06/28 09:47:34;;;;;;;4.90;4.40;;;;;;;29.11;35.29;100396.37;1716200;81;25811;-72
2021/06/28 09:50:21;;;;;;;6.78;6.08;;;;;;;29.03;36.43;100394.35;1715432;81;25868;-76
2021/06/28 09:52:52;;;;;;;6.37;4.92;;;;;;;29.16;36.69;100391.09;1755212;79;27497;-71
2021/06/28 09:55:28;;;;;;;5.53;4.83;;;;;;;29.13;36.42;100400.27;1710029;82;25951;-74
2021/06/28 09:58:22;;;;;;;5.20;4.65;;;;;;;28.92;36.43;100390.44;1768514;79;25779;-71
2021/06/28 10:00:49;;;;;;;5.05;4.08;;;;;;;28.83;36.59;100386.09;1724358;81;27292;-77
2021/06/28 10:03:35;;;;;;;5.72;3.80;;;;;;;28.96;37.42;100381.41;1727025;81;25934;-74
2021/06/28 10:06:15;;;;;;;5.95;4.20;;;;;;;29.30;37.35;100386.39;1755447;79;27926;-72
2021/06/28 10:08:50;;;;;;;4.28;3.87;;;;;;;29.69;37.67;100383.98;1761633;79;26612;-74
2021/06/28 10:11:19;;;;;;;6.28;4.15;;;;;;;30.20;37.24;100382.02;1750279;79;25704;-73
2021/06/28 10:13:53;;;;;;;4.58;4.15;;;;;;;30.62;36.62;100383.41;1761634;79;27827;-72
2021/06/28 10:16:23;;;;;;;10.13;4.15;;;;;;;31.01;35.69;100375.07;1737763;81;26555;-74
2021/06/28 10:18:55;;;;;;;6.45;4.25;;;;;;;31.42;35.67;100375.48;1702966;81;28980;-74
2021/06/28 10:21:23;;;;;;;4.53;4.12;;;;;;;31.81;35.02;100375.38;1740683;81;26671;-71
2021/06/28 10:23:50;;;;;;;6.53;4.22;;;;;;;31.98;33.96;100378.14;1699971;81;25903;-70
2021/06/28 10:26:17;;;;;;;8.43;3.85;;;;;;;32.06;33.99;100373.72;1786082;78;25743;-69
2021/06/28 10:28:44;;;;;;;7.50;3.92;;;;;;;32.34;33.94;100375.45;1786452;78;25895;-71
2021/06/28 10:31:12;;;;;;;4.42;3.55;;;;;;;32.67;33.22;100372.83;1778831;78;28643;-70
2021/06/28 10:33:42;;;;;;;7.47;4.28;;;;;;;32.93;31.44;100369.18;1788117;78;25850;-69
2021/06/28 10:36:13;;;;;;;4.45;3.40;;;;;;;32.53;30.75;100353.16;1784048;78;25976;-69
2021/06/28 10:38:55;;;;;;;3.95;3.52;;;;;;;31.97;31.92;100364.62;1791154;78;26288;-70
2021/06/28 10:41:41;;;;;;;4.30;3.77;;;;;;;31.64;32.38;100370.59;1775889;78;25795;-68
2021/06/28 10:44:11;;;;;;;5.67;3.62;;;;;;;31.46;32.63;100372.56;1791268;78;27390;-70
2021/06/28 10:46:40;;;;;;;5.53;3.17;;;;;;;31.44;32.97;100366.65;1776596;78;25858;-72
2021/06/28 10:49:07;;;;;;;5.75;2.58;;;;;;;31.56;32.63;100353.89;1752478;78;25919;-72
2021/06/28 10:51:51;;;;;;;3.55;3.33;;;;;;;31.50;32.17;100357.89;1773764;78;25681;-69
2021/06/28 10:54:33;;;;;;;3.30;3.00;;;;;;;31.61;32.67;100362.48;1787076;78;25707;-70
2021/06/28 10:57:01;;;;;;;3.47;2.45;;;;;;;31.91;33.12;100360.83;1773635;78;27208;-70
2021/06/28 10:59:39;;;;;;;5.10;2.70;;;;;;;32.36;32.44;100350.58;1790606;78;25744;-67
2021/06/28 11:02:09;;;;;;;4.50;3.17;;;;;;;32.78;32.36;100354.20;1777393;78;25812;-69
2021/06/28 11:04:54;;;;;;;4.70;2.90;;;;;;;33.11;32.04;100351.02;1745502;78;26672;-69
2021/06/28 11:07:23;;;;;;;6.80;2.92;;;;;;;33.46;30.91;100352.19;1790931;78;25783;-69
2021/06/28 11:09:56;;;;;;;3.02;2.72;;;;;;;33.58;30.09;100344.88;1778768;78;27354;-69
2021/06/28 11:12:34;;;;;;;3.12;2.72;;;;;;;33.73;29.85;100340.86;1777092;78;26659;-70
2021/06/28 11:15:24;;;;;;;3.40;2.77;;;;;;;33.99;30.28;100340.50;1784616;78;25644;-69
2021/06/28 11:17:54;;;;;;;3.12;2.40;;;;;;;34.36;29.83;100336.20;1777002;78;26577;-72
2021/06/28 11:20:33;;;;;;;14.13;3.83;;;;;;;34.53;28.91;100337.41;1780037;78;26706;-70
2021/06/28 11:23:16;;;;;;;3.92;2.45;;;;;;;34.81;28.01;100328.09;1785163;78;27288;-73
2021/06/28 11:25:49;;;;;;;3.00;2.65;;;;;;;34.54;27.70;100327.70;1788871;78;27152;-68
2021/06/28 11:28:38;;;;;;;2.85;2.50;;;;;;;34.54;27.70;100327.70;1778787;78;25790;-68
2021/06/28 11:31:08;;;;;;;5.60;2.47;;;;;;;34.66;27.80;100328.75;1765353;79;26450;-69
2021/06/28 11:33:42;;;;;;;7.30;2.70;;;;;;;34.66;27.80;100328.75;1715177;81;26611;-68
2021/06/28 11:36:26;;;;;;;2.70;2.50;;;;;;;34.61;27.77;100328.76;1736933;80;28084;-67
2021/06/28 11:38:55;;;;;;;3.17;2.45;;;;;;;34.86;27.94;100330.25;1740304;80;25721;-69
2021/06/28 11:41:25;;;;;;;2.67;2.45;;;;;;;35.04;27.32;100325.13;1735655;80;25838;-71
2021/06/28 11:44:04;;;;;;;4.03;2.50;;;;;;;35.13;27.39;100332.88;1734210;80;25920;-75
2021/06/28 11:46:36;;;;;;;3.77;2.60;;;;;;;35.13;26.74;100315.24;1762331;79;26125;-70
2021/06/28 11:49:24;;;;;;;4.30;2.45;;;;;;;35.14;26.22;100314.77;1763378;79;27313;-72
2021/06/28 11:51:52;;;;;;;4.08;2.80;;;;;;;35.11;26.99;100319.14;1773330;78;25653;-69
2021/06/28 11:54:22;;;;;;;2.70;2.50;;;;;;;35.15;26.79;100312.72;1779916;78;29994;-68
2021/06/28 11:56:59;;;;;;;2.80;2.52;;;;;;;34.89;26.60;100320.84;1771525;78;26156;-70
2021/06/28 11:59:26;;;;;;;5.33;2.87;;;;;;;34.75;27.15;100322.33;1784850;78;25814;-69
2021/06/28 12:02:02;;;;;;;2.80;2.60;;;;;;;34.77;27.59;100319.21;1774598;78;26566;-69
2021/06/28 12:04:32;;;;;;;3.65;2.20;;;;;;;34.95;27.45;100314.09;1767329;79;25836;-69
2021/06/28 12:07:01;;;;;;;2.58;2.37;;;;;;;35.17;27.43;100308.80;1781658;78;25694;-69
2021/06/28 12:09:37;;;;;;;4.55;4.03;;;;;;;35.28;26.24;100337.78;1783283;78;26481;-68
2021/06/28 12:12:11;;;;;;;3.67;3.00;;;;;;;34.88;26.83;100310.88;1786842;78;25635;-70
2021/06/28 12:14:49;;;;;;;;;;;;;;;34.67;26.41;100313.46;1796941;78;27283;-71
2021/06/28 12:17:21;;;;;;;4.65;2.72;;;;;;;34.67;26.63;100307.05;1790524;78;25840;-71
2021/06/28 12:19:57;;;;;;;2.80;2.55;;;;;;;34.57;26.46;100302.89;1788842;78;25832;-72
2021/06/28 12:22:28;;;;;;;3.20;2.62;;;;;;;34.93;27.34;100301.79;1797727;78;25864;-70
2021/06/28 12:25:10;;;;;;;5.28;2.50;;;;;;;34.92;27.06;100313.66;1774620;78;26481;-71
2021/06/28 12:27:42;;;;;;;3.22;2.65;;;;;;;34.92;27.06;100313.66;1787430;78;28591;-70
2021/06/28 12:30:13;;;;;;;4.47;2.72;;;;;;;34.54;26.45;100306.65;1797780;78;25755;-70
2021/06/28 12:32:52;;;;;;;4.22;2.45;;;;;;;33.77;26.80;100299.39;1785995;78;25854;-70
2021/06/28 12:35:23;;;;;;;2.90;2.70;;;;;;;33.77;26.80;100299.39;1772685;79;26145;-70
2021/06/28 12:37:55;;;;;;;2.40;2.22;;;;;;;33.59;27.13;100301.55;1785070;78;25776;-69
2021/06/28 12:40:32;;;;;;;4.40;2.55;;;;;;;33.41;27.50;100300.19;1721612;81;29587;-70
2021/06/28 12:43:12;;;;;;;3.08;2.70;;;;;;;33.47;27.40;100294.09;1724233;81;25733;-70
2021/06/28 12:45:44;;;;;;;;;;;;;;;33.69;28.21;100307.97;1766566;79;26183;-70
2021/06/28 12:48:21;;;;;;;3.08;2.45;;;;;;;34.09;27.75;100304.16;1759955;80;25846;-67
2021/06/28 12:51:03;;;;;;;5.97;2.60;;;;;;;34.42;27.56;100300.63;1765671;79;26587;-69
2021/06/28 12:53:32;;;;;;;3.67;2.60;;;;;;;34.71;27.16;100315.48;1731620;80;27321;-69
2021/06/28 12:56:14;;;;;;;3.37;2.55;;;;;;;34.79;26.71;100321.55;1762088;79;26555;-69
2021/06/28 12:58:54;;;;;;;3.52;2.33;;;;;;;34.77;25.82;100308.58;1757859;79;26792;-69
2021/06/28 13:01:34;;;;;;;2.52;2.33;;;;;;;34.40;25.74;100328.41;1759786;79;26056;-68
2021/06/28 13:04:20;;;;;;;4.75;2.58;;;;;;;33.89;26.66;100303.27;1763067;79;25700;-70
2021/06/28 13:06:47;;;;;;;2.87;2.42;;;;;;;33.89;26.66;100303.27;1719173;81;27394;-69
2021/06/28 13:09:18;;;;;;;3.98;2.33;;;;;;;34.21;26.51;100321.45;1722696;82;26554;-69
2021/06/28 13:11:54;;;;;;;3.40;2.80;;;;;;;34.21;26.51;100321.45;1738721;80;26206;-69
2021/06/28 13:14:28;;;;;;;5.30;2.55;;;;;;;33.96;26.39;100311.35;1726464;80;25947;-70
2021/06/28 13:17:17;;;;;;;2.98;2.20;;;;;;;33.96;26.39;100311.35;1787207;78;26483;-69
2021/06/28 13:19:44;;;;;;;2.33;1.80;;;;;;;34.01;26.37;100304.33;1740206;79;27421;-67
2021/06/28 13:22:11;;;;;;;2.47;1.90;;;;;;;34.22;26.23;100305.37;1788545;78;25567;-68
2021/06/28 13:24:38;;;;;;;2.12;1.98;;;;;;;34.24;25.57;100298.05;1792422;79;26417;-67
2021/06/28 13:27:08;;;;;;;3.37;2.22;;;;;;;34.19;25.42;100300.07;1778840;78;26717;-68
2021/06/28 13:29:39;;;;;;;2.60;2.40;;;;;;;34.11;25.69;100300.25;1748705;80;25974;-69
2021/06/28 13:32:17;;;;;;;2.42;2.20;;;;;;;34.05;25.57;100305.73;1764887;79;27995;-72
2021/06/28 13:34:47;;;;;;;4.30;2.80;;;;;;;34.02;26.32;100296.05;1768025;79;25871;-67
2021/06/28 13:37:18;;;;;;;3.17;2.02;;;;;;;34.10;25.94;100301.49;1721838;81;25677;-68
2021/06/28 13:39:52;;;;;;;2.52;2.33;;;;;;;34.15;26.43;100299.45;1714894;81;26107;-71
2021/06/28 13:42:35;;;;;;;5.15;2.40;;;;;;;34.31;26.48;100297.55;1732277;81;26432;-72
2021/06/28 13:45:07;;;;;;;2.95;2.47;;;;;;;34.34;25.70;100305.03;1729530;81;27331;-70
2021/06/28 13:48:00;;;;;;;3.05;2.10;;;;;;;34.22;25.66;100288.55;1730371;80;26417;-71
2021/06/28 13:50:43;;;;;;;4.35;2.60;;;;;;;34.11;26.11;100291.06;1719454;80;25356;-68
2021/06/28 13:53:19;;;;;;;3.95;2.90;;;;;;;34.08;26.44;100289.97;1709425;81;26119;-68
2021/06/28 13:55:49;;;;;;;4.45;2.45;;;;;;;34.12;26.47;100291.97;1738108;81;25902;-68
2021/06/28 13:58:24;;;;;;;2.90;2.70;;;;;;;34.09;26.51;100287.33;1725296;81;27480;-69
2021/06/28 14:00:53;;;;;;;2.77;2.58;;;;;;;34.06;25.84;100286.86;1728697;81;25788;-69
2021/06/28 14:03:20;;;;;;;2.85;2.50;;;;;;;33.92;26.43;100284.70;1725541;81;26618;-66
2021/06/28 14:05:48;;;;;;;3.33;2.47;;;;;;;33.77;26.34;100288.17;1724635;81;26554;-68
2021/06/28 14:08:18;;;;;;;3.02;1.95;;;;;;;33.74;26.47;100281.33;1731302;81;26058;-67
2021/06/28 14:10:54;;;;;;;5.70;4.75;;;;;;;33.69;26.27;100280.70;1706162;81;27333;-68
2021/06/28 14:13:35;;;;;;;5.33;2.37;;;;;;;33.57;26.56;100275.25;1714164;81;26379;-68
2021/06/28 14:16:02;;;;;;;3.87;2.67;;;;;;;33.56;26.77;100293.30;1730334;80;26085;-67
2021/06/28 14:18:28;;;;;;;3.17;2.50;;;;;;;33.56;26.77;100293.30;1724656;81;25883;-68
2021/06/28 14:20:55;;;;;;;2.90;2.50;;;;;;;33.33;26.72;100273.08;1761023;80;26112;-69
2021/06/28 14:23:21;;;;;;;3.52;2.40;;;;;;;33.29;27.01;100268.27;1764642;79;29577;-68
2021/06/28 14:25:48;;;;;;;4.58;2.27;;;;;;;33.21;26.40;100261.41;1756147;80;25954;-68
2021/06/28 14:28:16;;;;;;;3.22;2.75;;;;;;;33.04;26.56;100274.91;1724724;81;26588;-67
2021/06/28 14:30:42;;;;;;;4.43;2.57;;;;;;;32.92;26.54;100271.78;1789883;78;25745;-68
2021/06/28 14:33:09;;;;;;;2.90;2.33;;;;;;;32.79;27.20;100264.13;1758022;79;25738;-68
2021/06/28 14:35:35;;;;;;;2.47;2.25;;;;;;;32.74;26.73;100264.14;1733678;80;27306;-68
2021/06/28 14:38:04;;;;;;;3.72;2.22;;;;;;;32.62;26.83;100262.22;1761952;79;25824;-68
2021/06/28 14:40:32;;;;;;;3.00;2.47;;;;;;;32.56;26.96;100262.66;1759108;79;25808;-68
2021/06/28 14:42:59;;;;;;;4.35;2.42;;;;;;;32.39;26.01;100260.11;1761649;79;25968;-67
2021/06/28 14:45:26;;;;;;;2.40;2.20;;;;;;;32.19;26.56;100265.31;1760603;80;26505;-67
2021/06/28 14:47:52;;;;;;;2.47;1.90;;;;;;;32.10;26.81;100263.88;1724896;81;27373;-67
2021/06/28 14:50:19;;;;;;;3.35;2.12;;;;;;;32.20;26.80;100285.07;1734999;81;25745;-69
2021/06/28 14:52:45;;;;;;;2.40;1.90;;;;;;;32.20;26.80;100285.07;1725219;81;25537;-69
2021/06/28 14:55:14;;;;;;;2.95;2.10;;;;;;;31.96;27.10;100259.56;1787471;79;25793;-69
2021/06/28 14:57:43;;;;;;;3.92;2.60;;;;;;;31.93;27.26;100264.70;1755710;79;25715;-69
2021/06/28 15:00:11;;;;;;;3.87;2.00;;;;;;;31.90;27.42;100257.22;1786934;78;33292;-70
2021/06/28 15:02:37;;;;;;;3.10;1.98;;;;;;;31.84;27.69;100259.21;1753728;79;26327;-69
2021/06/28 15:05:05;;;;;;;2.05;1.82;;;;;;;31.83;27.70;100261.83;1739057;78;25746;-71
2021/06/28 15:07:32;;;;;;;2.20;2.00;;;;;;;31.78;27.59;100258.86;1774564;78;25863;-67
2021/06/28 15:09:59;;;;;;;1.98;1.87;;;;;;;31.73;27.38;100258.82;1780398;78;25947;-69
2021/06/28 15:12:25;;;;;;;5.22;2.27;;;;;;;31.65;27.46;100257.52;1793038;78;28167;-70
2021/06/28 15:14:52;;;;;;;3.00;1.98;;;;;;;31.57;27.89;100254.22;1760350;80;25738;-71
2021/06/28 15:17:19;;;;;;;3.30;2.17;;;;;;;31.57;28.19;100244.44;1758471;79;26503;-72
2021/06/28 15:19:47;;;;;;;2.33;1.95;;;;;;;31.59;28.14;100241.20;1759208;79;25827;-72
2021/06/28 15:22:15;;;;;;;5.20;2.25;;;;;;;31.62;28.14;100238.89;1761268;79;25826;-72
2021/06/28 15:24:42;;;;;;;2.42;2.00;;;;;;;31.61;28.20;100241.52;1724867;81;27277;-72
2021/06/28 15:27:10;;;;;;;5.03;2.12;;;;;;;31.61;28.21;100237.32;1758201;79;25974;-73
2021/06/28 15:29:39;;;;;;;2.70;2.50;;;;;;;31.56;28.33;100240.70;1733091;80;26418;-73
2021/06/28 15:32:12;;;;;;;4.08;2.80;;;;;;;31.44;28.57;100237.48;1729841;80;26158;-71
2021/06/28 15:34:40;;;;;;;2.52;2.25;;;;;;;31.44;28.57;100237.48;1741722;81;26685;-74
2021/06/28 15:37:10;;;;;;;2.83;2.37;;;;;;;31.32;28.70;100231.97;1725713;81;27354;-71
2021/06/28 15:39:37;;;;;;;2.45;2.25;;;;;;;31.26;29.04;100233.95;1732035;81;29274;-76
2021/06/28 15:42:05;;;;;;;4.22;2.70;;;;;;;31.25;29.20;100226.02;1732131;81;26363;-73
2021/06/28 15:44:32;;;;;;;2.52;2.33;;;;;;;31.22;29.41;100233.27;1741134;81;26226;-73
2021/06/28 15:46:59;;;;;;;4.47;2.33;;;;;;;31.17;29.37;100230.29;1759633;79;25875;-72
2021/06/28 15:49:25;;;;;;;2.77;2.25;;;;;;;31.09;29.38;100232.54;1719539;81;27324;-73
2021/06/28 15:51:52;;;;;;;4.92;2.67;;;;;;;31.02;29.27;100235.59;1724613;81;25683;-73
2021/06/28 15:54:19;;;;;;;3.40;2.52;;;;;;;30.89;29.49;100237.00;1790129;78;25671;-72
2021/06/28 15:56:45;;;;;;;2.90;2.60;;;;;;;30.77;29.40;100229.42;1780109;78;25775;-73
2021/06/28 15:59:12;;;;;;;2.55;2.35;;;;;;;30.62;29.55;100224.33;1785925;78;25675;-72
2021/06/28 16:01:42;;;;;;;3.55;2.47;;;;;;;30.52;29.62;100222.05;1783176;78;27887;-73
2021/06/28 16:04:07;;;;;;;3.12;2.70;;;;;;;30.29;29.74;100226.55;1788736;78;25891;-66
2021/06/28 16:06:33;;;;;;;3.22;2.75;;;;;;;30.15;30.28;100228.58;1782065;78;26478;-67
2021/06/28 16:09:00;;;;;;;4.37;2.80;;;;;;;30.06;30.58;100225.66;1746580;80;25786;-66
2021/06/28 16:11:28;;;;;;;3.87;2.08;;;;;;;29.96;30.55;100224.75;1785076;78;25698;-67
2021/06/28 16:13:56;;;;;;;4.07;2.63;;;;;;;29.88;30.92;100221.23;1752948;79;28003;-68
2021/06/28 16:16:23;;;;;;;4.08;2.40;;;;;;;29.82;31.00;100230.00;1776843;78;25732;-68
2021/06/28 16:18:50;;;;;;;4.20;3.50;;;;;;;29.77;31.29;100228.53;1787767;78;25708;-68
2021/06/28 16:21:16;;;;;;;3.65;2.90;;;;;;;29.72;31.23;100233.23;1781438;78;26324;-61
2021/06/28 16:23:43;;;;;;;3.15;2.87;;;;;;;29.69;31.46;100239.69;1783381;78;26535;-63
2021/06/28 16:26:11;;;;;;;2.95;2.67;;;;;;;29.62;31.28;100232.30;1788057;78;27269;-62
2021/06/28 16:28:38;;;;;;;5.60;2.77;;;;;;;29.44;31.42;100239.80;1787640;78;25921;-63
2021/06/28 16:31:05;;;;;;;3.62;2.70;;;;;;;29.44;31.42;100239.80;1782044;78;26471;-64
2021/06/28 16:33:32;;;;;;;2.87;2.40;;;;;;;29.35;31.62;100234.83;1793850;78;26079;-64
2021/06/28 16:35:58;;;;;;;3.17;2.70;;;;;;;29.32;31.75;100232.15;1790924;78;25794;-63
2021/06/28 16:38:24;;;;;;;5.15;2.45;;;;;;;29.25;31.83;100226.16;1786455;78;27390;-63
2021/06/28 16:40:51;;;;;;;5.30;2.92;;;;;;;29.21;31.83;100229.66;1787622;78;25960;-62
2021/06/28 16:43:17;;;;;;;5.05;4.15;;;;;;;29.17;31.97;100224.81;1778353;78;26529;-64
2021/06/28 16:45:44;;;;;;;4.03;2.60;;;;;;;29.13;32.09;100221.30;1784325;78;25850;-62
2021/06/28 16:48:10;;;;;;;2.50;2.30;;;;;;;29.02;32.04;100222.98;1782461;78;25855;-62
2021/06/28 16:50:37;;;;;;;2.92;2.60;;;;;;;28.92;32.14;100224.04;1784098;78;29540;-63
2021/06/28 16:53:04;;;;;;;2.70;2.50;;;;;;;28.80;32.13;100223.52;1773849;78;26428;-62
2021/06/28 16:55:31;;;;;;;3.40;2.58;;;;;;;28.72;32.35;100219.97;1776446;78;25682;-61
2021/06/28 16:57:57;;;;;;;6.00;3.22;;;;;;;28.63;32.57;100218.58;1790180;78;26183;-62
2021/06/28 17:00:24;;;;;;;4.53;3.50;;;;;;;28.56;32.71;100218.75;1775970;78;26178;-61
2021/06/28 17:02:51;;;;;;;4.62;2.83;;;;;;;28.47;32.79;100215.78;1784309;78;27348;-62
2021/06/28 17:05:17;;;;;;;5.03;2.72;;;;;;;28.39;33.06;100212.98;1779750;78;26611;-63
2021/06/28 17:07:43;;;;;;;3.65;2.65;;;;;;;28.30;33.13;100212.98;1787547;78;26609;-62